createdAt,value
2018-06-18T00:02:12.396Z,99.90
2018-06-18T00:04:40.244Z,99.90
2018-06-18T00:07:07.772Z,99.90
2018-06-18T00:09:35.264Z,99.90
2018-06-18T00:12:02.801Z,99.90
2018-06-18T00:14:30.296Z,99.90
2018-06-18T00:16:57.828Z,99.90
2018-06-18T00:19:25.322Z,99.90
2018-06-18T00:21:52.845Z,99.90
2018-06-18T00:24:20.436Z,99.90
2018-06-18T00:26:47.972Z,99.90
2018-06-18T00:29:15.466Z,99.90
2018-06-18T00:31:43.299Z,99.90
2018-06-18T00:34:10.805Z,99.90
2018-06-18T00:36:38.312Z,99.90
2018-06-18T00:39:07.344Z,99.90
2018-06-18T00:44:02.280Z,99.90
2018-06-18T00:46:29.824Z,99.90
2018-06-18T00:48:57.327Z,99.90
2018-06-18T00:51:25.605Z,99.90
2018-06-18T00:53:53.112Z,99.90
2018-06-18T00:56:20.626Z,99.90
2018-06-18T00:58:48.166Z,99.90
2018-06-18T01:01:15.697Z,99.90
2018-06-18T01:03:43.209Z,99.90
2018-06-18T01:06:10.740Z,99.90
2018-06-18T01:08:38.559Z,99.90
2018-06-18T01:11:06.064Z,99.90
2018-06-18T01:13:34.180Z,99.90
2018-06-18T01:16:01.677Z,99.90
2018-06-18T01:18:29.223Z,99.90
2018-06-18T01:20:56.737Z,99.90
2018-06-18T01:23:44.460Z,99.90
2018-06-18T01:26:12.213Z,99.90
2018-06-18T01:28:39.729Z,99.90
2018-06-18T01:31:07.240Z,99.90
2018-06-18T01:33:35.209Z,99.90
2018-06-18T01:36:02.876Z,99.90
2018-06-18T01:38:30.417Z,99.90
2018-06-18T01:40:57.964Z,99.90
2018-06-18T01:43:25.477Z,99.90
2018-06-18T01:45:53.164Z,99.90
2018-06-18T01:48:20.688Z,99.90
2018-06-18T01:50:48.525Z,99.90
2018-06-18T01:53:16.049Z,99.90
2018-06-18T01:55:43.713Z,99.90
2018-06-18T01:58:11.237Z,99.90
2018-06-18T02:00:38.730Z,99.90
2018-06-18T02:03:06.252Z,99.90
2018-06-18T02:05:33.766Z,99.90
2018-06-18T02:08:01.383Z,99.90
2018-06-18T02:10:28.892Z,99.90
2018-06-18T02:12:56.433Z,99.90
2018-06-18T02:15:24.400Z,99.90
2018-06-18T02:17:52.190Z,99.90
2018-06-18T02:20:20.292Z,99.90
2018-06-18T02:22:47.829Z,99.90
2018-06-18T02:25:15.333Z,99.90
2018-06-18T02:27:48.716Z,99.90
2018-06-18T02:30:21.989Z,99.90
2018-06-18T02:33:56.069Z,99.90
2018-06-18T02:36:29.363Z,99.90
2018-06-18T02:39:02.582Z,99.90
2018-06-18T02:41:30.085Z,99.90
2018-06-18T02:43:57.604Z,99.90
2018-06-18T02:46:25.088Z,99.90
2018-06-18T02:48:52.620Z,99.90
2018-06-18T02:51:20.113Z,99.90
2018-06-18T02:53:47.634Z,99.90
2018-06-18T02:56:15.716Z,99.90
2018-06-18T02:58:43.236Z,99.90
2018-06-18T03:01:10.732Z,99.90
2018-06-18T03:03:38.248Z,99.90
2018-06-18T03:06:06.286Z,99.90
2018-06-18T03:08:33.807Z,99.90
2018-06-18T03:11:01.301Z,99.90
2018-06-18T03:13:28.830Z,99.90
2018-06-18T03:15:56.356Z,99.90
2018-06-18T03:18:29.558Z,99.90
2018-06-18T03:21:02.753Z,99.90
2018-06-18T03:23:35.960Z,99.90
2018-06-18T03:26:09.212Z,99.90
2018-06-18T03:28:42.544Z,99.90
2018-06-18T03:31:10.119Z,99.90
2018-06-18T03:33:37.658Z,99.90
2018-06-18T03:36:07.218Z,99.90
2018-06-18T03:38:34.760Z,99.90
2018-06-18T03:41:02.276Z,99.90
2018-06-18T03:43:30.084Z,99.90
2018-06-18T03:45:57.581Z,99.90
2018-06-18T03:48:25.101Z,99.90
2018-06-18T03:50:53.200Z,99.90
2018-06-18T03:53:20.704Z,99.90
2018-06-18T03:55:57.572Z,99.90
2018-06-18T03:58:25.097Z,99.90
2018-06-18T04:01:07.717Z,99.90
2018-06-18T04:03:40.971Z,99.90
2018-06-18T04:07:17.028Z,99.90
2018-06-18T04:09:50.221Z,99.90
2018-06-18T04:12:17.800Z,99.90
2018-06-18T04:14:45.332Z,99.90
2018-06-18T04:17:12.828Z,99.90
2018-06-18T04:19:40.340Z,99.90
2018-06-18T04:22:07.849Z,99.90
2018-06-18T04:24:35.368Z,99.90
2018-06-18T04:27:02.905Z,99.90
2018-06-18T04:29:30.416Z,99.90
2018-06-18T04:31:57.920Z,99.90
2018-06-18T04:34:30.659Z,99.90
2018-06-18T04:36:59.581Z,99.90
2018-06-18T04:39:27.536Z,99.90
2018-06-18T04:42:00.729Z,99.90
2018-06-18T04:44:34.081Z,99.90
2018-06-18T04:47:07.433Z,99.90
2018-06-18T04:49:40.544Z,99.90
2018-06-18T04:52:08.052Z,99.90
2018-06-18T04:57:03.256Z,99.90
2018-06-18T04:59:32.048Z,99.90
2018-06-18T05:02:01.365Z,99.90
2018-06-18T05:04:28.913Z,99.90
2018-06-18T05:06:56.542Z,99.90
2018-06-18T05:10:01.873Z,99.90
2018-06-18T05:12:29.913Z,99.90
2018-06-18T05:14:58.716Z,99.90
2018-06-18T05:17:26.223Z,99.90
2018-06-18T05:19:53.752Z,99.90
2018-06-18T05:22:21.301Z,99.90
2018-06-18T05:24:50.983Z,99.90
2018-06-18T05:27:19.641Z,99.90
2018-06-18T05:29:47.566Z,99.90
2018-06-18T05:32:15.084Z,99.90
2018-06-18T05:34:42.592Z,99.90
2018-06-18T05:37:13.264Z,99.90
2018-06-18T05:39:41.328Z,99.90
2018-06-18T05:42:08.849Z,99.90
2018-06-18T05:44:36.343Z,99.90
2018-06-18T05:47:03.917Z,99.90
2018-06-18T05:49:31.444Z,99.90
2018-06-18T05:51:58.972Z,99.90
2018-06-18T05:54:27.056Z,99.90
2018-06-18T05:56:54.642Z,99.90
2018-06-18T05:59:22.152Z,99.90
2018-06-18T06:01:49.712Z,99.90
2018-06-18T06:04:17.224Z,99.90
2018-06-18T06:06:44.741Z,99.90
2018-06-18T06:09:12.580Z,99.90
2018-06-18T06:11:40.433Z,99.90
2018-06-18T06:14:08.569Z,99.90
2018-06-18T06:16:36.143Z,99.90
2018-06-18T06:19:03.924Z,99.90
2018-06-18T06:21:32.097Z,99.90
2018-06-18T06:23:59.673Z,99.90
2018-06-18T06:26:27.880Z,99.90
2018-06-18T06:28:55.614Z,99.90
2018-06-18T06:31:24.377Z,99.90
2018-06-18T06:33:53.288Z,99.90
2018-06-18T06:36:24.112Z,99.90
2018-06-18T06:38:52.269Z,99.90
2018-06-18T06:41:19.969Z,99.90
2018-06-18T06:43:48.346Z,99.90
2018-06-18T06:46:16.047Z,99.90
2018-06-18T06:48:43.649Z,99.90
2018-06-18T06:51:11.220Z,99.90
2018-06-18T06:53:38.866Z,99.90
2018-06-18T06:56:06.438Z,99.90
2018-06-18T06:58:34.087Z,99.90
2018-06-18T07:01:01.687Z,99.90
2018-06-18T07:03:29.311Z,99.90
2018-06-18T07:05:56.985Z,99.90
2018-06-18T07:08:24.649Z,99.90
2018-06-18T07:10:52.276Z,99.90
2018-06-18T07:13:20.034Z,99.90
2018-06-18T07:15:48.261Z,99.90
2018-06-18T07:20:43.372Z,99.90
2018-06-18T07:23:10.965Z,99.90
2018-06-18T07:25:38.508Z,99.90
2018-06-18T07:35:09.132Z,99.90
2018-06-18T07:37:36.673Z,99.90
2018-06-18T07:40:04.231Z,99.90
2018-06-18T07:42:31.759Z,99.90
2018-06-18T07:44:59.249Z,99.90
2018-06-18T07:47:26.778Z,99.90
2018-06-18T07:49:54.294Z,99.90
2018-06-18T07:52:21.808Z,99.90
2018-06-18T07:54:49.328Z,99.90
2018-06-18T07:57:16.847Z,99.90
2018-06-18T07:59:44.346Z,99.90
2018-06-18T08:02:12.071Z,99.90
2018-06-18T08:04:39.639Z,99.90
2018-06-18T08:07:07.371Z,99.90
2018-06-18T08:09:34.951Z,99.90
2018-06-18T08:12:02.513Z,99.90
2018-06-18T08:14:30.107Z,99.90
2018-06-18T08:16:58.318Z,99.90
2018-06-18T08:19:26.101Z,99.90
2018-06-18T08:21:53.636Z,99.90
2018-06-18T08:24:21.306Z,99.90
2018-06-18T08:26:48.953Z,99.90
2018-06-18T08:29:16.796Z,99.90
2018-06-18T08:31:44.445Z,99.90
2018-06-18T08:34:12.092Z,99.90
2018-06-18T08:36:39.812Z,99.90
2018-06-18T08:39:08.644Z,99.90
2018-06-18T08:41:36.821Z,99.90
2018-06-18T08:44:04.536Z,99.90
2018-06-18T08:46:32.041Z,99.90
2018-06-18T08:49:07.024Z,99.90
2018-06-18T08:51:40.139Z,99.90
2018-06-18T08:54:13.412Z,99.90
2018-06-18T08:56:46.713Z,99.90
2018-06-18T08:59:19.920Z,99.90
2018-06-18T09:01:47.628Z,99.90
2018-06-18T09:04:16.076Z,99.90
2018-06-18T09:06:43.845Z,99.90
2018-06-18T09:09:11.368Z,99.90
2018-06-18T09:11:38.876Z,99.90
2018-06-18T09:14:06.408Z,99.90
2018-06-18T09:16:33.909Z,99.90
2018-06-18T09:19:01.445Z,99.90
2018-06-18T09:21:28.948Z,99.60
2018-06-18T09:23:56.572Z,97.60
2018-06-18T09:26:24.474Z,99.90
2018-06-18T09:28:52.109Z,99.90
2018-06-18T09:31:19.672Z,99.30
2018-06-18T09:33:47.472Z,99.40
2018-06-18T09:36:15.128Z,98.80
2018-06-18T09:38:42.898Z,99.20
2018-06-18T09:41:11.044Z,98.40
2018-06-18T09:43:38.600Z,96.00
2018-06-18T09:46:06.465Z,98.30
2018-06-18T09:48:39.925Z,98.30
2018-06-18T09:52:14.064Z,95.90
2018-06-18T09:54:47.292Z,97.10
2018-06-18T09:57:27.205Z,97.70
2018-06-18T09:59:57.979Z,99.90
2018-06-18T10:02:26.210Z,99.70
2018-06-18T10:04:54.120Z,99.30
2018-06-18T10:07:22.869Z,99.50
2018-06-18T10:09:50.493Z,93.90
2018-06-18T10:12:18.090Z,97.00
2018-06-18T10:14:45.940Z,98.20
2018-06-18T10:17:13.536Z,97.80
2018-06-18T10:19:41.296Z,98.70
2018-06-18T10:22:08.972Z,99.10
2018-06-18T10:24:36.645Z,99.90
2018-06-18T10:27:04.780Z,99.90
2018-06-18T10:29:32.662Z,99.90
2018-06-18T10:32:00.292Z,98.80
2018-06-18T10:34:33.348Z,99.90
2018-06-18T10:37:06.592Z,99.90
2018-06-18T10:39:39.911Z,99.90
2018-06-18T10:42:13.084Z,99.10
2018-06-18T10:44:40.608Z,99.90
2018-06-18T10:47:08.130Z,99.90
2018-06-18T10:49:35.633Z,99.90
2018-06-18T10:52:03.297Z,99.90
2018-06-18T10:54:30.797Z,99.90
2018-06-18T10:56:58.411Z,99.90
2018-06-18T10:59:25.860Z,99.90
2018-06-18T11:01:53.393Z,99.90
2018-06-18T11:04:26.640Z,99.90
2018-06-18T11:06:54.144Z,99.90
2018-06-18T11:09:22.361Z,99.90
2018-06-18T11:11:51.128Z,99.90
2018-06-18T11:14:18.654Z,99.90
2018-06-18T11:16:50.987Z,99.90
2018-06-18T11:20:23.565Z,99.90
2018-06-18T11:22:57.011Z,99.90
2018-06-18T11:25:30.741Z,99.90
2018-06-18T11:27:58.321Z,99.90
2018-06-18T11:30:25.973Z,99.90
2018-06-18T11:32:53.526Z,99.90
2018-06-18T11:35:21.096Z,99.90
2018-06-18T11:40:16.503Z,99.90
2018-06-18T11:42:44.076Z,99.90
2018-06-18T11:45:11.709Z,99.90
2018-06-18T11:47:39.260Z,99.90
2018-06-18T11:50:07.201Z,99.90
2018-06-18T11:52:34.875Z,99.90
2018-06-18T11:55:02.466Z,99.90
2018-06-18T11:57:30.125Z,99.80
2018-06-18T12:00:03.402Z,99.50
2018-06-18T12:03:37.448Z,99.00
2018-06-18T12:06:10.754Z,96.80
2018-06-18T12:08:44.007Z,97.70
2018-06-18T12:11:11.592Z,98.20
2018-06-18T12:13:39.329Z,96.10
2018-06-18T12:16:06.943Z,99.30
2018-06-18T12:18:34.531Z,97.20
2018-06-18T12:21:02.170Z,98.20
2018-06-18T12:23:29.858Z,95.80
2018-06-18T12:25:58.010Z,96.50
2018-06-18T12:28:25.677Z,98.70
2018-06-18T12:30:53.208Z,99.90
2018-06-18T12:33:20.867Z,99.90
2018-06-18T12:38:16.091Z,98.40
2018-06-18T12:40:43.684Z,98.10
2018-06-18T12:43:12.329Z,96.20
2018-06-18T12:45:45.882Z,98.60
2018-06-18T12:48:19.128Z,99.10
2018-06-18T12:50:52.401Z,98.10
2018-06-18T12:53:25.721Z,98.20
2018-06-18T12:55:59.013Z,98.40
2018-06-18T12:58:26.613Z,99.90
2018-06-18T13:00:54.332Z,99.50
2018-06-18T13:03:21.966Z,99.90
2018-06-18T13:05:49.515Z,99.90
2018-06-18T13:08:17.184Z,99.90
2018-06-18T13:10:44.739Z,99.80
2018-06-18T13:13:12.339Z,98.70
2018-06-18T13:15:40.130Z,99.40
2018-06-18T13:18:07.656Z,99.10
2018-06-18T13:20:35.287Z,99.90
2018-06-18T13:23:02.933Z,96.80
2018-06-18T13:25:31.228Z,99.50
2018-06-18T13:28:04.397Z,99.90
2018-06-18T13:30:32.122Z,99.90
2018-06-18T13:32:59.717Z,99.60
2018-06-18T13:35:27.275Z,99.90
2018-06-18T13:38:00.499Z,97.40
2018-06-18T13:43:20.285Z,98.70
2018-06-18T13:45:52.468Z,99.30
2018-06-18T13:49:24.987Z,99.90
2018-06-18T13:51:52.554Z,99.10
2018-06-18T13:54:20.212Z,96.20
2018-06-18T13:56:47.842Z,97.40
2018-06-18T13:59:15.709Z,99.30
2018-06-18T14:01:43.313Z,99.90
2018-06-18T14:04:10.861Z,95.90
2018-06-18T14:06:39.196Z,98.10
2018-06-18T14:09:07.362Z,97.60
2018-06-18T14:11:35.204Z,98.10
2018-06-18T14:14:02.888Z,99.90
2018-06-18T14:16:30.688Z,96.30
2018-06-18T14:19:02.868Z,96.80
2018-06-18T14:21:30.464Z,96.50
2018-06-18T14:23:58.162Z,97.50
2018-06-18T14:26:25.779Z,97.90
2018-06-18T14:28:53.510Z,98.00
2018-06-18T14:31:26.741Z,99.90
2018-06-18T14:36:33.240Z,99.90
2018-06-18T14:39:06.356Z,99.40
2018-06-18T14:41:33.952Z,99.90
2018-06-18T14:44:01.578Z,99.90
2018-06-18T14:46:29.774Z,99.90
2018-06-18T14:48:57.337Z,99.90
2018-06-18T14:51:24.997Z,99.90
2018-06-18T14:53:52.528Z,98.60
2018-06-18T14:56:31.179Z,97.90
2018-06-18T14:59:02.497Z,97.30
2018-06-18T15:01:30.089Z,99.10
2018-06-18T15:03:57.851Z,99.90
2018-06-18T15:06:25.405Z,99.50
2018-06-18T15:08:53.280Z,99.90
2018-06-18T15:11:20.854Z,99.90
2018-06-18T15:13:48.439Z,99.90
2018-06-18T15:16:21.492Z,99.90
2018-06-18T15:18:49.030Z,99.90
2018-06-18T15:21:16.568Z,99.90
2018-06-18T15:23:44.158Z,99.90
2018-06-18T15:26:11.700Z,99.90
2018-06-18T15:28:39.329Z,99.90
2018-06-18T15:31:06.864Z,99.90
2018-06-18T15:33:34.409Z,99.90
2018-06-18T15:36:01.930Z,99.90
2018-06-18T15:38:30.569Z,99.90
2018-06-18T15:40:58.069Z,99.90
2018-06-18T15:43:25.664Z,99.90
2018-06-18T15:45:53.199Z,99.90
2018-06-18T15:48:20.735Z,99.90
2018-06-18T15:50:48.278Z,99.90
2018-06-18T15:53:15.829Z,99.90
2018-06-18T15:55:43.361Z,99.90
2018-06-18T15:58:11.048Z,99.90
2018-06-18T16:00:38.573Z,99.90
2018-06-18T16:03:06.162Z,99.90
2018-06-18T16:05:33.701Z,99.90
2018-06-18T16:08:01.292Z,99.90
2018-06-18T16:10:28.920Z,99.90
2018-06-18T16:12:56.500Z,99.90
2018-06-18T16:15:24.084Z,99.90
2018-06-18T16:17:51.728Z,99.90
2018-06-18T16:20:19.237Z,99.90
2018-06-18T16:22:46.904Z,99.90
2018-06-18T16:25:14.504Z,99.90
2018-06-18T16:27:42.168Z,99.90
2018-06-18T16:30:09.735Z,99.90
2018-06-18T16:32:37.285Z,99.90
2018-06-18T16:35:05.144Z,99.90
2018-06-18T16:37:32.720Z,99.90
2018-06-18T16:40:00.289Z,99.90
2018-06-18T16:42:29.041Z,99.90
2018-06-18T16:44:56.767Z,99.90
2018-06-18T16:47:24.346Z,99.90
2018-06-18T16:49:51.949Z,99.90
2018-06-18T16:52:19.477Z,99.90
2018-06-18T16:54:47.153Z,99.90
2018-06-18T16:57:14.830Z,99.90
2018-06-18T16:59:42.496Z,99.90
2018-06-18T17:02:10.194Z,99.90
2018-06-18T17:04:37.864Z,99.90
2018-06-18T17:07:05.469Z,99.90
2018-06-18T17:09:33.169Z,99.90
2018-06-18T17:12:01.098Z,99.90
2018-06-18T17:14:28.873Z,99.90
2018-06-18T17:16:56.436Z,99.90
2018-06-18T17:19:24.037Z,99.90
2018-06-18T17:21:52.365Z,99.90
2018-06-18T17:24:19.992Z,99.90
2018-06-18T17:26:47.613Z,99.90
2018-06-18T17:29:15.227Z,99.90
2018-06-18T17:31:42.838Z,99.90
2018-06-18T17:34:10.466Z,99.90
2018-06-18T17:36:38.073Z,99.90
2018-06-18T17:39:08.329Z,99.90
2018-06-18T17:41:35.935Z,99.90
2018-06-18T17:44:03.784Z,99.90
2018-06-18T17:46:31.745Z,99.90
2018-06-18T17:48:59.336Z,99.90
2018-06-18T17:51:27.005Z,99.90
2018-06-18T17:53:54.552Z,99.90
2018-06-18T17:56:22.404Z,99.90
2018-06-18T17:58:50.037Z,99.90
2018-06-18T18:01:17.598Z,99.90
2018-06-18T18:03:45.205Z,99.90
2018-06-18T18:06:12.797Z,99.90
2018-06-18T18:08:40.415Z,99.90
2018-06-18T18:11:07.984Z,99.90
2018-06-18T18:13:35.609Z,99.90
2018-06-18T18:16:03.237Z,99.90
2018-06-18T18:18:30.815Z,99.90
2018-06-18T18:20:58.350Z,99.90
2018-06-18T18:23:25.920Z,99.90
2018-06-18T18:25:53.579Z,99.90
2018-06-18T18:28:21.213Z,99.90
2018-06-18T18:30:48.811Z,99.90
2018-06-18T18:33:16.610Z,99.90
2018-06-18T18:35:45.198Z,99.90
2018-06-18T18:38:13.682Z,99.90
2018-06-18T18:40:41.537Z,99.90
2018-06-18T18:43:09.277Z,99.90
2018-06-18T18:45:37.012Z,99.90
2018-06-18T18:48:05.882Z,99.90
2018-06-18T18:50:33.636Z,99.90
2018-06-18T18:53:01.624Z,99.90
2018-06-18T18:55:42.045Z,99.90
2018-06-18T18:58:21.818Z,99.90
2018-06-18T19:00:50.274Z,99.90
2018-06-18T19:03:20.117Z,99.90
2018-06-18T19:05:48.991Z,99.90
2018-06-18T19:08:31.828Z,99.90
2018-06-18T19:11:02.455Z,99.90
2018-06-18T19:13:33.517Z,99.90
2018-06-18T19:16:01.154Z,99.90
2018-06-18T19:18:28.753Z,99.90
2018-06-18T19:21:00.029Z,99.90
2018-06-18T19:23:27.896Z,99.90
2018-06-18T19:25:55.529Z,99.90
2018-06-18T19:28:23.187Z,99.90
2018-06-18T19:31:01.104Z,99.90
2018-06-18T19:33:39.276Z,99.90
2018-06-18T19:36:07.228Z,99.90
2018-06-18T19:38:35.284Z,99.90
2018-06-18T19:41:02.846Z,99.90
2018-06-18T19:43:30.403Z,99.90
2018-06-18T19:46:00.481Z,99.90
2018-06-18T19:48:33.274Z,99.90
2018-06-18T19:51:00.794Z,99.90
2018-06-18T19:53:28.292Z,99.90
2018-06-18T19:55:56.501Z,99.90
2018-06-18T19:58:24.005Z,99.90
2018-06-18T20:00:54.236Z,99.90
2018-06-18T20:03:21.760Z,99.90
2018-06-18T20:05:50.792Z,99.90
2018-06-18T20:08:21.480Z,99.90
2018-06-18T20:10:49.025Z,99.90
2018-06-18T20:13:16.885Z,99.90
2018-06-18T20:15:44.458Z,99.90
2018-06-18T20:18:11.987Z,99.90
2018-06-18T20:20:39.528Z,99.90
2018-06-18T20:23:09.512Z,99.90
2018-06-18T20:25:41.103Z,99.90
2018-06-18T20:28:08.740Z,99.90
2018-06-18T20:30:36.296Z,99.90
2018-06-18T20:33:04.166Z,99.90
2018-06-18T20:35:34.897Z,99.90
2018-06-18T20:38:02.507Z,99.90
2018-06-18T20:40:30.000Z,99.90
2018-06-18T20:42:57.809Z,99.90
2018-06-18T20:45:25.734Z,99.90
2018-06-18T20:47:53.868Z,99.90
2018-06-18T20:50:21.420Z,99.90
2018-06-18T20:52:48.916Z,99.90
2018-06-18T20:55:16.452Z,99.90
2018-06-18T20:57:43.974Z,99.90
2018-06-18T21:00:11.568Z,99.90
2018-06-18T21:02:39.164Z,99.90
2018-06-18T21:05:06.727Z,99.90
2018-06-18T21:07:34.474Z,99.90
2018-06-18T21:10:02.106Z,99.90
2018-06-18T21:12:29.665Z,99.90
2018-06-18T21:17:25.648Z,99.90
2018-06-18T21:19:53.183Z,99.90
2018-06-18T21:22:20.697Z,99.90
2018-06-18T21:24:48.220Z,99.90
2018-06-18T21:27:15.748Z,99.90
2018-06-18T21:29:43.273Z,99.90
2018-06-18T21:32:10.799Z,99.90
2018-06-18T21:34:38.383Z,99.90
2018-06-18T21:37:05.920Z,99.90
2018-06-18T21:39:33.505Z,99.90
2018-06-18T21:42:01.041Z,99.90
2018-06-18T21:44:40.285Z,99.90
2018-06-18T21:47:07.781Z,99.90
2018-06-18T21:49:35.288Z,99.90
2018-06-18T21:52:02.868Z,99.90
2018-06-18T21:54:30.376Z,99.90
2018-06-18T21:56:57.959Z,99.90
2018-06-18T22:02:56.597Z,99.90
2018-06-18T22:05:24.138Z,99.90
2018-06-18T22:07:51.649Z,99.90
2018-06-18T22:10:19.232Z,99.90
2018-06-18T22:12:46.744Z,99.90
2018-06-18T22:15:14.246Z,99.90
2018-06-18T22:17:41.774Z,99.90
2018-06-18T22:20:09.300Z,99.90
2018-06-18T22:22:36.818Z,99.90
2018-06-18T22:25:04.360Z,99.90
2018-06-18T22:29:59.522Z,99.90
2018-06-18T22:32:27.053Z,99.90
2018-06-18T22:34:54.613Z,99.90
2018-06-18T22:37:22.188Z,99.90
2018-06-18T22:39:49.700Z,99.90
2018-06-18T22:42:17.273Z,99.90
2018-06-18T22:44:44.777Z,99.90
2018-06-18T22:47:12.328Z,99.90
2018-06-18T22:49:39.993Z,99.90
2018-06-18T22:52:07.499Z,99.90
2018-06-18T22:54:35.061Z,99.90
2018-06-18T22:57:02.589Z,99.90
2018-06-18T22:59:30.189Z,99.90
2018-06-18T23:01:58.834Z,99.90
2018-06-18T23:04:26.408Z,99.90
2018-06-18T23:06:54.476Z,99.90
2018-06-18T23:09:22.056Z,99.90
2018-06-18T23:11:49.589Z,99.90
2018-06-18T23:14:19.910Z,99.90
2018-06-18T23:16:47.450Z,99.90
2018-06-18T23:19:15.033Z,99.90
2018-06-18T23:21:42.542Z,99.90
2018-06-18T23:24:10.093Z,99.90
2018-06-18T23:29:07.324Z,99.90
2018-06-18T23:31:34.845Z,99.90
2018-06-18T23:34:02.354Z,99.90
2018-06-18T23:36:29.888Z,99.90
2018-06-18T23:38:57.428Z,99.90
2018-06-18T23:41:26.571Z,99.90
2018-06-18T23:43:54.068Z,99.90
2018-06-18T23:46:21.600Z,99.90
2018-06-18T23:48:49.128Z,99.90
2018-06-18T23:51:16.701Z,99.90
2018-06-18T23:53:44.240Z,99.90
2018-06-18T23:56:11.806Z,99.90
2018-06-18T23:58:39.305Z,99.90
